Time;durP1;ratioP1;P1;durP2;ratioP2;P2;SDS_P1;SDS_P2;PMS_P1;PMS_P2;Temp;Humidity;BMP_temperature;BMP_pressure;BME280_temperature;BME280_humidity;BME280_pressure;Samples;Min_cycle;Max_cycle;Signal;HPM_P1;HPM_P2
2021/07/19 00:00:57;;;;;;;5.97;3.13;;;;;;;21.30;53.78;102189.19;4905043;28;119179;-76
2021/07/19 00:03:24;;;;;;;4.30;3.08;;;;;;;21.29;53.79;102200.09;4900897;28;119426;-76
2021/07/19 00:05:51;;;;;;;5.78;3.05;;;;;;;21.29;53.71;102189.31;4905313;28;123824;-76
2021/07/19 00:08:27;;;;;;;;;;;;;;;21.27;53.19;102191.25;4899278;28;123454;-76
2021/07/19 00:10:54;;;;;;;6.40;3.47;;;;;;;21.26;53.33;102184.13;4906894;28;118737;-76
2021/07/19 00:13:24;;;;;;;3.67;3.00;;;;;;;21.23;53.47;102173.53;4889234;28;118957;-76
2021/07/19 00:15:51;;;;;;;5.93;2.95;;;;;;;21.19;53.61;102173.78;4899624;28;125142;-76
2021/07/19 00:18:19;;;;;;;5.88;3.28;;;;;;;21.16;53.90;102179.38;4910869;28;123825;-76
2021/07/19 00:20:46;;;;;;;4.63;3.25;;;;;;;21.15;53.79;102176.75;4895853;28;119612;-75
2021/07/19 00:23:13;;;;;;;6.82;3.33;;;;;;;21.12;53.91;102177.84;4898241;28;118413;-76
2021/07/19 00:25:40;;;;;;;5.75;3.53;;;;;;;21.08;53.86;102179.03;4907778;28;123817;-76
2021/07/19 00:28:08;;;;;;;5.45;3.22;;;;;;;21.05;53.78;102184.63;4909064;28;124067;-76
2021/07/19 00:30:37;;;;;;;7.20;3.70;;;;;;;21.03;53.94;102178.47;4901950;28;119870;-76
2021/07/19 00:33:04;;;;;;;9.45;3.78;;;;;;;21.00;54.03;102178.66;4911693;28;119438;-76
2021/07/19 00:35:32;;;;;;;4.85;3.25;;;;;;;20.97;54.10;102182.44;4911234;28;123058;-76
2021/07/19 00:38:00;;;;;;;5.85;3.67;;;;;;;20.95;53.97;102183.53;4901543;28;123373;-76
2021/07/19 00:40:29;;;;;;;7.40;3.80;;;;;;;20.93;54.05;102188.16;4909992;28;120055;-76
2021/07/19 00:42:56;;;;;;;6.05;3.63;;;;;;;20.91;54.09;102184.72;4908397;28;118328;-76
2021/07/19 00:45:27;;;;;;;5.80;4.15;;;;;;;20.88;54.09;102174.13;4896272;28;123876;-76
2021/07/19 00:47:56;;;;;;;6.38;3.53;;;;;;;20.85;54.26;102175.22;4899647;28;124282;-75
2021/07/19 00:50:27;;;;;;;6.20;3.67;;;;;;;20.83;54.26;102182.50;4897700;28;120078;-76
2021/07/19 00:52:59;;;;;;;6.63;3.35;;;;;;;20.82;54.11;102179.94;4922671;28;119134;-76
2021/07/19 00:55:54;;;;;;;6.22;3.40;;;;;;;20.77;54.05;102178.41;4909262;28;124864;-76
2021/07/19 00:58:27;;;;;;;5.63;3.35;;;;;;;20.77;54.28;102177.53;4900243;28;123297;-76
2021/07/19 01:00:57;;;;;;;8.23;3.33;;;;;;;20.74;54.32;102175.94;4908754;28;118526;-76
2021/07/19 01:03:26;;;;;;;6.43;3.60;;;;;;;20.74;54.31;102173.25;4903767;28;119004;-76
2021/07/19 01:05:55;;;;;;;5.78;3.67;;;;;;;20.73;54.19;102171.50;4908724;28;124806;-76
2021/07/19 01:08:25;;;;;;;7.38;3.33;;;;;;;20.72;54.28;102175.16;4903474;28;123219;-76
2021/07/19 01:10:53;;;;;;;6.85;3.80;;;;;;;20.70;54.49;102166.34;4906715;28;119666;-76
2021/07/19 01:13:22;;;;;;;4.60;3.35;;;;;;;20.67;54.48;102166.53;4908652;28;119187;-76
2021/07/19 01:15:49;;;;;;;5.53;3.55;;;;;;;20.66;54.47;102178.25;4907843;28;123636;-76
2021/07/19 01:18:18;;;;;;;6.80;3.65;;;;;;;20.65;54.45;102179.22;4903771;28;124238;-76
2021/07/19 01:21:06;;;;;;;7.63;4.18;;;;;;;20.61;54.48;102177.72;4907305;28;118448;-76
2021/07/19 01:23:58;;;;;;;11.13;3.90;;;;;;;20.56;54.32;102177.13;4909520;28;118615;-76
2021/07/19 01:26:42;;;;;;;4.95;3.72;;;;;;;20.54;54.49;102176.34;4893248;28;123732;-76
2021/07/19 01:29:13;;;;;;;6.82;3.72;;;;;;;20.51;54.35;102176.53;4906423;28;124081;-76
2021/07/19 01:31:45;;;;;;;6.70;3.80;;;;;;;20.48;54.58;102176.78;4906764;28;118762;-76
2021/07/19 01:34:18;;;;;;;5.43;3.38;;;;;;;20.46;54.63;102173.31;4913691;28;117900;-76
2021/07/19 01:36:49;;;;;;;5.80;3.38;;;;;;;20.42;54.40;102168.13;4906324;28;123746;-76
2021/07/19 01:39:26;;;;;;;5.75;3.42;;;;;;;20.39;54.58;102173.69;4890486;28;123749;-75
2021/07/19 01:41:56;;;;;;;8.23;3.95;;;;;;;20.37;54.40;102189.09;4901750;28;120252;-75
2021/07/19 01:44:24;;;;;;;6.93;4.20;;;;;;;20.33;54.45;102178.63;4895335;28;119890;-76
2021/07/19 01:46:54;;;;;;;6.13;3.53;;;;;;;20.30;54.56;102178.81;4890345;28;123906;-76
2021/07/19 01:49:22;;;;;;;7.05;4.15;;;;;;;20.25;54.56;102176.44;4911262;28;123927;-76
2021/07/19 01:51:52;;;;;;;5.32;3.58;;;;;;;20.21;54.59;102169.50;4906637;28;118548;-76
2021/07/19 01:54:22;;;;;;;5.63;3.72;;;;;;;20.18;54.76;102159.81;4892826;28;118080;-76
2021/07/19 01:56:53;;;;;;;6.38;3.95;;;;;;;20.16;54.72;102166.28;4901621;28;124148;-76
2021/07/19 01:59:22;;;;;;;7.68;4.10;;;;;;;20.12;54.73;102154.00;4888603;28;123361;-76
2021/07/19 02:02:09;;;;;;;6.05;3.95;;;;;;;20.09;54.76;102155.03;4899955;28;118599;-76
2021/07/19 02:04:37;;;;;;;6.05;4.20;;;;;;;20.06;54.64;102154.34;4896240;28;118663;-76
2021/07/19 02:07:06;;;;;;;8.57;4.70;;;;;;;20.01;54.82;102155.53;4888629;28;124449;-76
2021/07/19 02:09:36;;;;;;;7.32;4.00;;;;;;;19.99;54.93;102154.75;4898813;28;123454;-76
2021/07/19 02:12:28;;;;;;;6.50;4.07;;;;;;;19.95;54.60;102147.84;4910834;28;118119;-76
2021/07/19 02:14:57;;;;;;;8.63;4.32;;;;;;;19.92;54.76;102142.66;4906524;28;118551;-76
2021/07/19 02:17:31;;;;;;;7.80;4.22;;;;;;;19.90;54.92;102149.97;4907694;28;124521;-76
2021/07/19 02:19:58;;;;;;;6.53;4.10;;;;;;;19.87;54.69;102150.16;4900335;28;122999;-76
2021/07/19 02:22:28;;;;;;;6.32;4.07;;;;;;;19.83;54.72;102143.25;4909038;28;119148;-75
2021/07/19 02:25:07;;;;;;;6.95;4.18;;;;;;;19.79;54.88;102141.72;4913250;28;117810;-76
2021/07/19 02:27:46;;;;;;;5.95;4.10;;;;;;;19.75;55.07;102145.56;4900078;28;123310;-75
2021/07/19 02:30:17;;;;;;;6.85;4.15;;;;;;;19.72;55.12;102152.00;4905391;28;122942;-75
2021/07/19 02:32:47;;;;;;;6.53;3.92;;;;;;;19.68;55.09;102154.94;4882075;28;119835;-76
2021/07/19 02:35:16;;;;;;;6.63;4.10;;;;;;;19.64;55.12;102163.19;4906358;28;120025;-76
2021/07/19 02:37:47;;;;;;;9.23;4.80;;;;;;;19.59;55.25;102162.63;4899940;28;123280;-76
2021/07/19 02:40:25;;;;;;;8.10;4.38;;;;;;;19.54;55.01;102159.34;4902700;28;123557;-75
2021/07/19 02:42:56;;;;;;;8.23;4.35;;;;;;;19.51;55.28;102170.28;4882758;28;119086;-76
2021/07/19 02:45:27;;;;;;;7.60;4.43;;;;;;;19.47;55.46;102163.38;4913305;28;118320;-76
2021/07/19 02:47:56;;;;;;;7.13;4.28;;;;;;;19.44;55.34;102163.59;4914418;28;123685;-75
2021/07/19 02:50:33;;;;;;;7.53;4.43;;;;;;;19.39;55.66;102149.56;4912037;28;123419;-76
2021/07/19 02:53:03;;;;;;;7.63;4.28;;;;;;;19.37;55.67;102156.84;4888907;28;118516;-76
2021/07/19 02:55:32;;;;;;;8.98;4.57;;;;;;;19.36;55.47;102157.78;4902471;28;120781;-76
2021/07/19 02:58:03;;;;;;;9.50;4.80;;;;;;;19.34;55.67;102165.09;4905102;28;124148;-76
2021/07/19 03:00:32;;;;;;;7.97;4.97;;;;;;;19.32;55.60;102164.31;4902958;28;123189;-76
2021/07/19 03:03:07;;;;;;;7.85;4.32;;;;;;;19.30;55.61;102168.94;4902871;28;119311;-76
2021/07/19 03:05:38;;;;;;;7.55;4.70;;;;;;;19.28;55.59;102174.38;4898789;28;117521;-76
2021/07/19 03:08:09;;;;;;;8.48;4.47;;;;;;;19.25;55.49;102175.44;4897564;28;123513;-76
2021/07/19 03:11:10;;;;;;;7.28;4.28;;;;;;;19.22;55.58;102172.94;4902629;28;124233;-76
2021/07/19 03:13:41;;;;;;;7.00;4.28;;;;;;;19.19;55.67;102174.94;4904162;28;119546;-76
2021/07/19 03:16:11;;;;;;;6.78;4.50;;;;;;;19.15;56.03;102174.25;4905484;28;118418;-76
2021/07/19 03:18:41;;;;;;;9.05;4.45;;;;;;;19.12;55.95;102174.47;4907223;28;123811;-76
2021/07/19 03:21:09;;;;;;;8.70;4.65;;;;;;;19.09;55.71;102166.56;4911872;28;124339;-76
2021/07/19 03:23:40;;;;;;;7.22;4.65;;;;;;;19.07;55.92;102171.19;4897859;28;119223;-76
2021/07/19 03:26:09;;;;;;;8.95;4.40;;;;;;;19.05;55.89;102170.41;4894186;28;119709;-76
2021/07/19 03:28:40;;;;;;;6.80;4.63;;;;;;;19.03;55.80;102175.00;4897736;28;123619;-75
2021/07/19 03:31:07;;;;;;;8.43;4.60;;;;;;;19.00;56.26;102175.19;4908954;28;123803;-76
2021/07/19 03:33:41;;;;;;;8.27;4.95;;;;;;;18.98;56.14;102182.47;4903178;28;119012;-76
2021/07/19 03:36:13;;;;;;;7.50;4.72;;;;;;;18.96;56.17;102170.94;4911600;28;118371;-76
2021/07/19 03:38:42;;;;;;;8.65;5.28;;;;;;;18.94;56.10;102170.19;4908416;28;125069;-76
2021/07/19 03:41:35;;;;;;;8.60;4.93;;;;;;;18.90;56.08;102163.28;4899438;28;122931;-76
2021/07/19 03:44:08;;;;;;;9.95;5.00;;;;;;;18.87;56.03;102164.28;4904948;28;119376;-76
2021/07/19 03:46:38;;;;;;;9.40;5.60;;;;;;;18.86;56.14;102163.44;4918401;28;119554;-76
2021/07/19 03:49:07;;;;;;;8.95;5.68;;;;;;;18.85;56.38;102164.41;4901225;28;123618;-76
2021/07/19 03:51:34;;;;;;;9.73;5.50;;;;;;;18.85;56.26;102177.84;4907394;28;124743;-76
2021/07/19 03:54:04;;;;;;;10.05;5.35;;;;;;;18.83;56.39;102171.66;4910699;28;119617;-76
2021/07/19 03:56:35;;;;;;;12.02;5.80;;;;;;;18.82;56.54;102172.63;4904918;28;118296;-76
2021/07/19 03:59:05;;;;;;;11.40;5.85;;;;;;;18.81;56.53;102170.88;4899908;28;124333;-76
2021/07/19 04:01:37;;;;;;;10.13;5.63;;;;;;;18.80;56.68;102174.53;4898400;28;123107;-76
2021/07/19 04:04:06;;;;;;;10.25;5.75;;;;;;;18.79;56.82;102183.50;4903904;28;118522;-76
2021/07/19 04:06:44;;;;;;;11.80;5.68;;;;;;;18.79;56.81;102188.88;4909031;28;118632;-76
2021/07/19 04:09:12;;;;;;;9.20;5.47;;;;;;;18.78;56.50;102192.53;4903118;28;124797;-76
2021/07/19 04:11:40;;;;;;;10.45;5.43;;;;;;;18.76;56.98;102186.38;4901784;28;123736;-75
2021/07/19 04:14:14;;;;;;;10.38;5.80;;;;;;;18.74;57.02;102185.63;4908754;28;120140;-76
2021/07/19 04:16:43;;;;;;;9.70;5.97;;;;;;;18.74;56.97;102180.25;4896803;28;118612;-76
2021/07/19 04:19:13;;;;;;;10.25;5.68;;;;;;;18.74;57.06;102185.63;4910979;28;124411;-76
2021/07/19 04:21:44;;;;;;;10.30;5.75;;;;;;;18.77;57.02;102185.41;4908536;28;123020;-76
2021/07/19 04:24:18;;;;;;;13.70;5.85;;;;;;;18.77;57.23;102190.78;4916326;28;117549;-76
2021/07/19 04:26:48;;;;;;;8.93;5.47;;;;;;;18.78;57.19;102184.47;4903350;28;118223;-76
2021/07/19 04:29:22;;;;;;;11.65;6.35;;;;;;;18.79;57.49;102183.50;4881153;28;123703;-76
2021/07/19 04:31:56;;;;;;;10.55;5.70;;;;;;;18.80;57.42;102196.03;4900974;28;123424;-75
2021/07/19 04:34:31;;;;;;;10.98;5.75;;;;;;;18.83;57.43;102201.19;4907280;28;119493;-75
2021/07/19 04:37:08;;;;;;;10.98;5.80;;;;;;;18.85;57.61;102199.31;4886244;28;118531;-76
2021/07/19 04:39:42;;;;;;;10.40;5.90;;;;;;;18.86;57.53;102198.34;4879318;28;123322;-76
2021/07/19 04:42:11;;;;;;;9.73;5.88;;;;;;;18.89;57.67;102188.38;4903043;28;124468;-76
2021/07/19 04:44:38;;;;;;;12.38;6.20;;;;;;;18.91;57.80;102186.47;4895452;28;118206;-76
2021/07/19 04:47:07;;;;;;;12.73;6.18;;;;;;;18.95;57.84;102194.25;4907964;28;119341;-75
2021/07/19 04:49:38;;;;;;;11.43;6.53;;;;;;;18.97;57.95;102191.50;4906024;28;124758;-76
2021/07/19 04:52:06;;;;;;;12.57;6.40;;;;;;;19.00;58.01;102185.91;4901670;28;124617;-76
2021/07/19 04:54:39;;;;;;;10.48;6.30;;;;;;;19.03;57.95;102191.13;4912141;28;119601;-76
2021/07/19 04:57:11;;;;;;;12.10;6.75;;;;;;;19.05;58.13;102199.94;4895672;28;118073;-76
2021/07/19 04:59:44;;;;;;;12.13;6.43;;;;;;;19.09;58.15;102201.50;4903854;28;124425;-76
2021/07/19 05:02:17;;;;;;;13.35;7.18;;;;;;;19.12;58.29;102201.31;4909257;28;124571;-76
2021/07/19 05:04:47;;;;;;;10.90;6.65;;;;;;;19.15;58.40;102201.13;4912535;28;120644;-76
2021/07/19 05:07:17;;;;;;;11.32;6.57;;;;;;;19.19;58.43;102197.31;4898557;28;119837;-76
2021/07/19 05:09:46;;;;;;;11.50;6.72;;;;;;;19.23;58.47;102198.84;4900667;28;123858;-76
2021/07/19 05:12:21;;;;;;;10.35;6.78;;;;;;;19.30;58.59;102198.47;4893357;28;123147;-76
2021/07/19 05:14:48;;;;;;;11.70;6.47;;;;;;;19.34;58.57;102200.88;4906246;28;119238;-76
2021/07/19 05:17:16;;;;;;;12.05;6.90;;;;;;;19.38;58.54;102201.56;4894724;28;119319;-76
2021/07/19 05:19:44;;;;;;;10.77;6.93;;;;;;;19.42;58.46;102197.72;4911069;28;124632;-76
2021/07/19 05:22:13;;;;;;;11.52;6.88;;;;;;;19.46;58.65;102204.66;4890007;28;123485;-76
2021/07/19 05:24:42;;;;;;;12.93;6.38;;;;;;;19.51;58.75;102207.06;4889954;28;117361;-74
2021/07/19 05:27:11;;;;;;;15.10;7.40;;;;;;;19.53;58.67;102205.97;4910390;28;117903;-74
2021/07/19 05:29:39;;;;;;;13.48;7.15;;;;;;;19.57;58.83;102212.94;4906219;28;124054;-74
2021/07/19 05:32:08;;;;;;;12.52;6.95;;;;;;;19.61;58.81;102214.47;4905885;28;124407;-74
2021/07/19 05:34:36;;;;;;;13.52;7.30;;;;;;;19.67;58.91;102207.00;4905300;28;119412;-74
2021/07/19 05:37:03;;;;;;;13.25;7.43;;;;;;;19.73;58.90;102206.63;4894129;28;118590;-75
2021/07/19 05:39:31;;;;;;;13.68;7.38;;;;;;;19.79;58.94;102211.63;4900436;28;124088;-74
2021/07/19 05:41:58;;;;;;;12.35;7.05;;;;;;;19.83;59.08;102202.41;4908164;28;123331;-74
2021/07/19 05:44:25;;;;;;;14.75;7.75;;;;;;;19.88;59.16;102205.66;4898821;28;118517;-75
2021/07/19 05:46:53;;;;;;;15.52;7.90;;;;;;;19.95;59.23;102217.78;4899469;28;119307;-74
2021/07/19 05:49:20;;;;;;;14.13;8.00;;;;;;;20.00;59.25;102210.28;4905768;28;124519;-74
2021/07/19 05:51:47;;;;;;;16.23;8.60;;;;;;;20.08;59.20;102211.59;4911450;28;123038;-75
2021/07/19 05:54:15;;;;;;;13.88;8.32;;;;;;;20.14;59.06;102203.16;4895231;28;119614;-75
2021/07/19 05:56:42;;;;;;;17.30;8.68;;;;;;;20.20;59.15;102205.47;4902568;28;119220;-75
2021/07/19 05:59:10;;;;;;;14.63;8.30;;;;;;;20.29;59.10;102210.25;4908934;28;123949;-74
2021/07/19 06:01:37;;;;;;;13.70;7.40;;;;;;;20.37;59.17;102207.91;4907104;28;123469;-74
2021/07/19 06:04:04;;;;;;;13.77;7.38;;;;;;;20.43;59.01;102207.50;4910679;28;118871;-74
2021/07/19 06:06:32;;;;;;;13.13;7.32;;;;;;;20.54;59.04;102203.28;4909696;28;119333;-74
2021/07/19 06:08:59;;;;;;;12.80;6.55;;;;;;;20.63;58.99;102202.69;4903944;28;122356;-74
2021/07/19 06:11:26;;;;;;;10.95;6.40;;;;;;;20.71;58.81;102200.34;4908360;28;124780;-74
2021/07/19 06:13:53;;;;;;;12.57;6.35;;;;;;;20.79;58.73;102208.81;4896751;28;118308;-74
2021/07/19 06:16:20;;;;;;;11.43;6.47;;;;;;;20.88;59.00;102206.44;4899520;28;118181;-74
2021/07/19 06:18:47;;;;;;;11.13;6.40;;;;;;;21.00;58.62;102211.00;4891092;28;123514;-74
2021/07/19 06:21:14;;;;;;;13.15;6.88;;;;;;;21.10;58.36;102206.72;4912153;28;123178;-75
2021/07/19 06:23:43;;;;;;;12.15;7.00;;;;;;;21.19;58.24;102206.09;4899323;28;118965;-75
2021/07/19 06:26:11;;;;;;;13.23;6.50;;;;;;;21.27;57.93;102212.81;4901933;28;118987;-76
2021/07/19 06:28:38;;;;;;;12.77;6.47;;;;;;;21.33;57.69;102212.38;4890781;28;121996;-75
2021/07/19 06:31:06;;;;;;;12.95;6.25;;;;;;;21.38;57.47;102215.63;4896587;28;124221;-76
2021/07/19 06:33:33;;;;;;;11.10;6.30;;;;;;;21.45;57.60;102216.94;4891738;28;119755;-76
2021/07/19 06:36:00;;;;;;;12.10;6.60;;;;;;;21.55;57.80;102234.22;4917852;28;119500;-76
2021/07/19 06:38:27;;;;;;;11.93;5.55;;;;;;;21.68;57.32;102227.94;4898774;28;124041;-77
2021/07/19 06:40:54;;;;;;;8.88;4.78;;;;;;;21.82;57.27;102222.47;4899363;28;122897;-76
2021/07/19 06:43:21;;;;;;;9.23;4.95;;;;;;;21.96;56.96;102216.97;4902990;28;120389;-76
2021/07/19 06:45:48;;;;;;;9.25;5.63;;;;;;;22.09;56.81;102206.13;4905898;28;120265;-76
2021/07/19 06:48:16;;;;;;;8.80;4.65;;;;;;;22.22;56.50;102206.09;4895006;28;124127;-76
2021/07/19 06:50:43;;;;;;;8.45;5.38;;;;;;;22.33;55.92;102208.91;4892247;28;124885;-76
2021/07/19 06:53:10;;;;;;;9.38;5.30;;;;;;;22.42;56.00;102206.53;4891692;28;118507;-76
2021/07/19 06:55:37;;;;;;;9.43;4.95;;;;;;;22.52;56.10;102207.56;4904182;28;117983;-76
2021/07/19 06:58:04;;;;;;;10.40;5.20;;;;;;;22.66;56.10;102199.28;4896194;28;123936;-79
2021/07/19 07:00:31;;;;;;;8.25;5.03;;;;;;;22.77;56.07;102211.13;4907666;28;124191;-80
2021/07/19 07:02:59;;;;;;;10.77;4.82;;;;;;;22.86;55.58;102205.03;4880027;28;118906;-76
2021/07/19 07:05:26;;;;;;;9.60;5.18;;;;;;;22.93;55.12;102211.69;4898012;28;119717;-76
2021/07/19 07:07:53;;;;;;;7.13;4.57;;;;;;;22.99;55.05;102219.31;4901905;28;123547;-76
2021/07/19 07:10:22;;;;;;;10.02;4.95;;;;;;;23.09;55.17;102223.09;4903829;28;124632;-76
2021/07/19 07:12:49;;;;;;;8.25;4.55;;;;;;;23.24;54.90;102231.00;4900904;28;120588;-76
2021/07/19 07:15:16;;;;;;;10.93;4.20;;;;;;;23.37;54.67;102220.94;4912627;28;119806;-76
2021/07/19 07:17:43;;;;;;;7.50;4.72;;;;;;;23.50;54.28;102221.72;4911499;28;124512;-76
2021/07/19 07:20:12;;;;;;;9.65;4.50;;;;;;;23.59;53.97;102225.56;4912223;28;123663;-75
2021/07/19 07:22:39;;;;;;;7.80;4.55;;;;;;;23.68;53.43;102223.97;4921499;28;119313;-76
2021/07/19 07:25:06;;;;;;;9.18;4.63;;;;;;;23.74;53.13;102218.06;4912398;28;118792;-75
2021/07/19 07:27:35;;;;;;;8.98;5.10;;;;;;;23.83;53.19;102211.13;4912214;28;123830;-75
2021/07/19 07:30:08;;;;;;;9.48;4.90;;;;;;;23.98;52.81;102222.53;4910489;28;123998;-75
2021/07/19 07:32:36;;;;;;;9.57;5.38;;;;;;;24.07;52.35;102219.09;4910162;28;120563;-75
2021/07/19 07:35:04;;;;;;;9.60;5.45;;;;;;;24.08;51.71;102220.81;4912829;28;119920;-76
2021/07/19 07:37:32;;;;;;;11.32;5.35;;;;;;;24.05;51.65;102215.66;4907556;28;125109;-75
2021/07/19 07:40:00;;;;;;;8.15;4.93;;;;;;;24.04;51.34;102219.34;4903933;28;124330;-75
2021/07/19 07:42:28;;;;;;;8.95;4.75;;;;;;;24.03;51.39;102228.44;4903500;28;120050;-75
2021/07/19 07:44:56;;;;;;;9.75;5.78;;;;;;;24.03;51.51;102229.28;4904961;28;119614;-75
2021/07/19 07:47:23;;;;;;;9.63;5.47;;;;;;;24.06;51.16;102217.38;4910601;28;123812;-75
2021/07/19 07:49:51;;;;;;;9.50;5.35;;;;;;;24.09;51.08;102222.53;4913596;28;123654;-76
2021/07/19 07:52:19;;;;;;;8.18;5.38;;;;;;;24.10;51.00;102224.25;4907446;28;119383;-75
2021/07/19 07:54:46;;;;;;;11.02;4.80;;;;;;;24.08;50.76;102231.66;4907207;28;120039;-76
2021/07/19 07:57:14;;;;;;;10.73;5.40;;;;;;;24.03;50.52;102228.44;4906510;28;123616;-76
2021/07/19 07:59:41;;;;;;;9.75;5.28;;;;;;;23.98;50.36;102230.66;4893841;28;122984;-75
2021/07/19 08:02:09;;;;;;;8.60;5.50;;;;;;;23.91;50.30;102227.59;4920809;28;120071;-76
2021/07/19 08:04:38;;;;;;;9.23;5.40;;;;;;;23.85;50.47;102215.41;4903590;28;118876;-76
2021/07/19 08:07:06;;;;;;;9.73;5.43;;;;;;;23.82;50.36;102215.66;4912073;28;124429;-76
2021/07/19 08:09:33;;;;;;;10.13;5.72;;;;;;;23.82;50.49;102221.06;4923275;28;123392;-76
2021/07/19 08:12:00;;;;;;;8.18;5.22;;;;;;;23.83;50.95;102222.78;4911019;28;117440;-76
2021/07/19 08:14:28;;;;;;;10.20;5.60;;;;;;;23.85;50.61;102215.41;4911657;28;118904;-76
2021/07/19 08:16:55;;;;;;;11.05;5.72;;;;;;;23.89;50.42;102211.47;4916836;28;123399;-77
2021/07/19 08:19:28;;;;;;;9.85;5.68;;;;;;;23.94;50.45;102212.94;4909605;28;122985;-74
2021/07/19 08:21:56;;;;;;;11.10;5.95;;;;;;;23.99;49.89;102216.16;4910161;28;119756;-75
2021/07/19 08:24:23;;;;;;;10.32;5.43;;;;;;;24.01;50.07;102215.03;4912334;28;119917;-75
2021/07/19 08:26:50;;;;;;;9.65;5.90;;;;;;;24.04;49.74;102219.34;4928359;28;123839;-75
2021/07/19 08:29:17;;;;;;;10.18;6.05;;;;;;;24.04;49.43;102219.34;4901355;28;123187;-75
2021/07/19 08:31:45;;;;;;;11.60;5.88;;;;;;;24.05;49.02;102215.66;4918408;28;119684;-75
2021/07/19 08:34:13;;;;;;;10.43;5.95;;;;;;;24.05;49.12;102210.22;4900152;28;119130;-75
2021/07/19 08:36:40;;;;;;;8.40;5.43;;;;;;;24.08;49.67;102204.59;4916135;28;123754;-75
2021/07/19 08:39:07;;;;;;;9.77;5.85;;;;;;;24.15;49.24;102211.22;4918592;28;124066;-75
2021/07/19 08:41:35;;;;;;;12.50;6.20;;;;;;;24.23;49.09;102208.75;4900923;28;117837;-75
2021/07/19 08:44:06;;;;;;;9.57;6.13;;;;;;;24.29;48.99;102210.94;4917556;28;118685;-74
2021/07/19 08:46:35;;;;;;;11.50;6.40;;;;;;;24.35;48.39;102211.44;4916677;28;123542;-75
2021/07/19 08:49:07;;;;;;;10.57;6.25;;;;;;;24.37;48.07;102209.47;4914474;28;123072;-75
2021/07/19 08:51:39;;;;;;;8.05;5.60;;;;;;;24.38;48.13;102205.78;4903453;28;118115;-77
2021/07/19 08:54:09;;;;;;;9.02;6.15;;;;;;;24.36;47.96;102200.47;4930002;28;118458;-76
2021/07/19 08:56:41;;;;;;;8.18;5.68;;;;;;;24.35;47.68;102206.88;4902655;28;123161;-76
2021/07/19 08:59:10;;;;;;;8.80;5.63;;;;;;;24.36;48.01;102202.34;4898583;28;122825;-75
2021/07/19 09:01:39;;;;;;;11.73;6.40;;;;;;;24.40;47.90;102203.81;4905693;28;119542;-74
2021/07/19 09:04:08;;;;;;;9.23;5.68;;;;;;;24.43;47.93;102217.06;4891973;28;118068;-75
2021/07/19 09:06:39;;;;;;;12.15;6.72;;;;;;;24.44;48.05;102221.50;4894313;28;124276;-74
2021/07/19 09:09:06;;;;;;;11.18;6.00;;;;;;;24.47;47.67;102216.72;4910508;28;124358;-74
2021/07/19 09:11:33;;;;;;;9.73;5.80;;;;;;;24.50;47.76;102210.16;4909335;28;120335;-74
2021/07/19 09:14:03;;;;;;;8.48;5.75;;;;;;;24.54;47.87;102217.06;4919796;28;119939;-74
2021/07/19 09:16:45;;;;;;;9.90;5.78;;;;;;;24.56;47.93;102209.69;4909169;28;124431;-74
2021/07/19 09:19:14;;;;;;;11.35;6.28;;;;;;;24.63;47.95;102210.91;4906808;28;124987;-74
2021/07/19 09:21:44;;;;;;;9.40;5.75;;;;;;;24.70;48.22;102205.00;4909649;28;119776;-75
2021/07/19 09:24:17;;;;;;;10.75;6.13;;;;;;;24.78;47.65;102207.91;4922138;28;118598;-74
2021/07/19 09:26:46;;;;;;;8.73;6.07;;;;;;;24.90;48.36;102198.72;4921370;28;124346;-75
2021/07/19 09:29:17;;;;;;;9.90;5.90;;;;;;;24.99;47.72;102197.94;4915521;28;124195;-74
2021/07/19 09:31:49;;;;;;;11.23;6.05;;;;;;;25.03;47.43;102202.16;4927578;28;118390;-74
2021/07/19 09:34:22;;;;;;;11.00;5.88;;;;;;;25.01;47.35;102193.25;4913735;28;119074;-74
2021/07/19 09:37:07;;;;;;;10.05;5.90;;;;;;;24.97;47.42;102191.78;4913663;28;123086;-75
2021/07/19 09:39:54;;;;;;;11.38;6.15;;;;;;;24.96;47.20;102194.63;4907613;28;123843;-75
2021/07/19 09:42:24;;;;;;;11.18;6.25;;;;;;;24.97;47.49;102194.50;4907142;28;119626;-74
2021/07/19 09:44:59;;;;;;;9.80;6.22;;;;;;;24.99;47.19;102188.97;4910489;28;119186;-75
2021/07/19 09:47:36;;;;;;;10.32;5.88;;;;;;;24.99;46.86;102188.97;4892545;28;122605;-74
2021/07/19 09:50:15;;;;;;;11.05;6.18;;;;;;;25.00;47.29;102191.56;4908434;28;123270;-74
2021/07/19 09:52:44;;;;;;;9.43;5.32;;;;;;;25.04;47.06;102192.16;4906525;28;119958;-75
2021/07/19 09:55:21;;;;;;;9.30;5.82;;;;;;;25.09;47.55;102194.44;4910595;28;118919;-74
2021/07/19 09:57:59;;;;;;;9.07;5.93;;;;;;;25.13;46.88;102191.38;4922324;28;124280;-74
2021/07/19 10:00:29;;;;;;;13.20;6.43;;;;;;;25.20;47.36;102178.13;4901431;28;123636;-74
2021/07/19 10:02:56;;;;;;;8.40;5.50;;;;;;;25.28;46.97;102172.94;4908325;28;119710;-74
2021/07/19 10:05:27;;;;;;;9.90;5.95;;;;;;;25.35;46.70;102174.09;4908828;28;118868;-74
2021/07/19 10:07:56;;;;;;;10.65;5.60;;;;;;;25.40;47.07;102177.28;4908929;28;123024;-74
2021/07/19 10:10:33;;;;;;;9.18;6.00;;;;;;;25.44;46.58;102177.88;4911816;28;123704;-74
2021/07/19 10:13:02;;;;;;;8.70;5.47;;;;;;;25.45;46.92;102179.63;4918389;28;119574;-75
2021/07/19 10:15:31;;;;;;;11.90;6.18;;;;;;;25.49;46.83;102174.78;4908932;28;119286;-74
2021/07/19 10:17:59;;;;;;;8.40;5.22;;;;;;;25.57;46.62;102177.66;4908045;28;123590;-74
2021/07/19 10:20:26;;;;;;;9.35;5.40;;;;;;;25.66;46.70;102174.16;4924208;28;124322;-76
2021/07/19 10:22:54;;;;;;;8.95;5.43;;;;;;;25.74;46.68;102174.31;4917274;28;119175;-75
2021/07/19 10:25:21;;;;;;;9.05;5.15;;;;;;;25.78;46.41;102175.75;4909998;28;120011;-76
2021/07/19 10:27:48;;;;;;;9.63;5.78;;;;;;;25.87;46.14;102173.25;4909051;28;124810;-76
2021/07/19 10:30:16;;;;;;;8.27;5.20;;;;;;;25.92;45.81;102168.28;4920458;28;123976;-75
2021/07/19 10:32:44;;;;;;;9.68;6.20;;;;;;;25.96;45.79;102162.44;4912121;28;117641;-75
2021/07/19 10:35:12;;;;;;;9.30;5.47;;;;;;;25.97;45.30;102169.56;4917136;28;119215;-75
2021/07/19 10:37:50;;;;;;;8.05;5.13;;;;;;;26.00;45.27;102152.16;4915475;28;124221;-76
2021/07/19 10:40:25;;;;;;;9.68;5.90;;;;;;;26.07;45.11;102150.63;4927170;28;122919;-75
2021/07/19 10:43:03;;;;;;;8.18;5.32;;;;;;;26.17;45.52;102162.34;4912493;28;119008;-76
2021/07/19 10:45:38;;;;;;;9.68;5.30;;;;;;;26.27;44.97;102158.81;4906668;28;117759;-75
2021/07/19 10:48:05;;;;;;;9.02;5.90;;;;;;;26.35;44.68;102162.56;4922312;28;123871;-75
2021/07/19 10:50:38;;;;;;;8.68;5.47;;;;;;;26.45;44.84;102157.13;4913929;28;123909;-75
2021/07/19 10:53:19;;;;;;;9.02;5.85;;;;;;;26.57;45.58;102155.97;4911324;28;120365;-76
2021/07/19 10:56:02;;;;;;;8.02;5.30;;;;;;;26.71;45.14;102152.03;4919818;28;120185;-75
2021/07/19 10:58:37;;;;;;;9.90;6.05;;;;;;;26.80;45.00;102150.28;4908159;28;124032;-75
2021/07/19 11:01:05;;;;;;;8.90;5.70;;;;;;;26.86;44.78;102160.59;4903997;28;124210;-75
2021/07/19 11:03:39;;;;;;;10.18;5.25;;;;;;;26.87;44.21;102150.59;4913582;28;119549;-76
2021/07/19 11:06:06;;;;;;;8.73;5.63;;;;;;;26.87;44.23;102150.59;4911852;28;119284;-76
2021/07/19 11:08:33;;;;;;;10.23;5.55;;;;;;;26.85;43.69;102148.00;4901140;28;123272;-76
2021/07/19 11:11:00;;;;;;;9.20;5.30;;;;;;;26.86;43.83;102147.00;4910441;28;123779;-75
2021/07/19 11:13:33;;;;;;;8.57;5.18;;;;;;;26.92;43.46;102146.44;4913062;28;120156;-76
2021/07/19 11:16:12;;;;;;;8.48;5.75;;;;;;;26.97;43.53;102141.41;4893652;28;118022;-75
2021/07/19 11:18:39;;;;;;;9.40;5.70;;;;;;;26.99;43.45;102133.09;4908788;28;124233;-76
2021/07/19 11:21:06;;;;;;;8.65;5.60;;;;;;;26.99;43.08;102133.97;4903979;28;123923;-75
2021/07/19 11:23:37;;;;;;;11.00;5.97;;;;;;;27.04;43.23;102138.09;4906787;28;119127;-75
2021/07/19 11:26:21;;;;;;;9.65;6.00;;;;;;;27.11;43.42;102136.53;4901424;28;117459;-75
2021/07/19 11:28:49;;;;;;;11.20;6.00;;;;;;;27.22;43.41;102139.06;4905970;28;123410;-76